createdAt,value
2023-01-10T00:03:56.680Z,99330.22
2023-01-10T00:08:58.086Z,99336.31
2023-01-10T00:13:59.817Z,99332.78
2023-01-10T00:19:01.251Z,99333.91
2023-01-10T00:24:17.515Z,99346.59
2023-01-10T00:29:20.380Z,99350.47
2023-01-10T00:34:21.811Z,99350.47
2023-01-10T00:39:27.071Z,99353.88
2023-01-10T00:44:28.486Z,99354.75
2023-01-10T00:49:29.945Z,99366.69
2023-01-10T00:54:31.398Z,99358.53
2023-01-10T00:59:33.223Z,99374.66
2023-01-10T01:04:35.241Z,99381.97
2023-01-10T01:09:56.703Z,99391.59
2023-01-10T01:14:58.227Z,99394.16
2023-01-10T01:19:59.664Z,99400.28
2023-01-10T01:25:01.144Z,99400.50
2023-01-10T01:30:02.751Z,99407.59
2023-01-10T01:35:05.685Z,99402.22
2023-01-10T01:40:08.920Z,99409.53
2023-01-10T01:45:22.699Z,99418.50
2023-01-10T01:50:35.859Z,99410.22
2023-01-10T01:55:39.761Z,99416.81
2023-01-10T02:00:41.697Z,99421.19
2023-01-10T02:05:44.965Z,99431.56
2023-01-10T02:11:11.573Z,99439.84
2023-01-10T02:16:13.423Z,99435.44
2023-01-10T02:21:38.403Z,99441.44
2023-01-10T02:26:57.843Z,99444.63
2023-01-10T02:32:18.763Z,99450.00
2023-01-10T02:37:39.753Z,99467.19
2023-01-10T02:43:00.940Z,99477.56
2023-01-10T02:48:02.676Z,99479.13
2023-01-10T02:53:16.318Z,99483.13
2023-01-10T02:58:36.586Z,99499.47
2023-01-10T03:04:11.027Z,99510.91
2023-01-10T03:09:25.829Z,99527.38
2023-01-10T03:14:30.114Z,99527.78
2023-01-10T03:19:38.274Z,99533.59
2023-01-10T03:24:49.209Z,99541.72
2023-01-10T03:30:25.080Z,99551.47
2023-01-10T03:35:44.234Z,99566.31
2023-01-10T03:40:58.101Z,99578.84
2023-01-10T03:46:09.296Z,99565.03
2023-01-10T03:51:12.689Z,99578.63
2023-01-10T03:56:15.093Z,99595.63
2023-01-10T04:01:17.282Z,99589.63
2023-01-10T04:06:20.207Z,99603.75
2023-01-10T04:11:21.705Z,99595.94
2023-01-10T04:16:23.189Z,99608.59
2023-01-10T04:21:24.617Z,99619.53
2023-01-10T04:26:26.152Z,99624.69
2023-01-10T04:31:27.572Z,99637.47
2023-01-10T04:36:29.039Z,99642.25
2023-01-10T04:41:31.657Z,99660.25
2023-01-10T04:46:33.323Z,99674.75
2023-01-10T04:51:34.774Z,99690.09
2023-01-10T04:56:36.219Z,99698.25
2023-01-10T05:01:39.245Z,99706.28
2023-01-10T05:06:40.846Z,99713.06
2023-01-10T05:11:42.285Z,99726.59
2023-01-10T05:16:43.736Z,99718.41
2023-01-10T05:21:45.158Z,99737.31
2023-01-10T05:26:46.572Z,99737.09
2023-01-10T05:31:51.106Z,99745.03
2023-01-10T05:36:52.758Z,99751.59
2023-01-10T05:41:54.183Z,99760.69
2023-01-10T05:46:55.656Z,99769.72
2023-01-10T05:51:57.063Z,99775.41
2023-01-10T05:56:58.512Z,99785.81
2023-01-10T06:02:00.022Z,99790.53
2023-01-10T06:07:01.612Z,99803.81
2023-01-10T06:12:03.192Z,99814.66
2023-01-10T06:17:08.555Z,99823.50
2023-01-10T06:22:10.044Z,99833.19
2023-01-10T06:27:11.485Z,99842.47
2023-01-10T06:32:12.951Z,99854.94
2023-01-10T06:37:14.378Z,99865.94
2023-01-10T06:42:15.850Z,99869.22
2023-01-10T06:47:17.299Z,99887.78
2023-01-10T06:52:18.808Z,99897.16
2023-01-10T06:57:20.868Z,99911.47
2023-01-10T07:02:22.417Z,99916.06
2023-01-10T07:07:23.893Z,99931.06
2023-01-10T07:12:25.403Z,99941.72
2023-01-10T07:17:26.840Z,99951.31
2023-01-10T07:22:28.251Z,99954.91
2023-01-10T07:27:32.812Z,99962.81
2023-01-10T07:32:34.305Z,99969.38
2023-01-10T07:37:35.789Z,99973.19
2023-01-10T07:42:37.209Z,99988.13
2023-01-10T07:47:38.808Z,100001.59
2023-01-10T07:52:40.352Z,100001.63
2023-01-10T07:57:41.788Z,100007.63
2023-01-10T08:02:43.472Z,100024.19
2023-01-10T08:07:45.065Z,100023.97
2023-01-10T08:12:48.212Z,100029.22
2023-01-10T08:17:49.702Z,100043.63
2023-01-10T08:22:51.212Z,100041.91
2023-01-10T08:27:53.001Z,100062.22
2023-01-10T08:32:54.543Z,100065.00
2023-01-10T08:38:00.162Z,100051.00
2023-01-10T08:43:07.628Z,100068.81
2023-01-10T08:48:10.225Z,100065.19
2023-01-10T08:53:13.705Z,100078.56
2023-01-10T08:58:15.638Z,100087.97
2023-01-10T09:03:17.191Z,100094.44
2023-01-10T09:08:18.665Z,100099.03
2023-01-10T09:13:20.321Z,100094.72
2023-01-10T09:18:21.856Z,100106.81
2023-01-10T09:23:23.744Z,100108.44
2023-01-10T09:28:25.227Z,100122.84
2023-01-10T09:33:35.007Z,100132.19
2023-01-10T09:38:46.538Z,100140.00
2023-01-10T09:43:53.820Z,100153.47
2023-01-10T09:49:15.695Z,100155.94
2023-01-10T09:54:23.596Z,100162.38
2023-01-10T09:59:26.949Z,100165.41
2023-01-10T10:04:37.503Z,100174.53
2023-01-10T10:09:39.275Z,100174.53
2023-01-10T10:14:58.984Z,100187.72
2023-01-10T10:20:06.364Z,100185.88
2023-01-10T10:25:37.690Z,100193.44
2023-01-10T10:31:09.244Z,100199.66
2023-01-10T10:36:29.317Z,100196.47
2023-01-10T10:41:43.734Z,100188.13
2023-01-10T10:46:45.482Z,100205.53
2023-01-10T10:51:52.971Z,100206.59
2023-01-10T10:56:56.096Z,100197.63
2023-01-10T11:01:57.790Z,100200.22
2023-01-10T11:07:00.716Z,100197.78
2023-01-10T11:12:03.728Z,100193.38
2023-01-10T11:17:25.582Z,100207.06
2023-01-10T11:22:40.263Z,100198.25
2023-01-10T11:27:52.235Z,100202.34
2023-01-10T11:33:00.709Z,100211.97
2023-01-10T11:38:17.101Z,100233.38
2023-01-10T11:43:41.515Z,100228.50
2023-01-10T11:49:04.901Z,100218.56
2023-01-10T11:54:11.654Z,100237.38
2023-01-10T11:59:16.604Z,100245.00
2023-01-10T12:04:21.149Z,100241.28
2023-01-10T12:09:42.228Z,100261.47
2023-01-10T12:14:44.314Z,100270.91
2023-01-10T12:19:45.794Z,100268.03
2023-01-10T12:24:51.097Z,100270.72
2023-01-10T12:30:11.598Z,100264.91
2023-01-10T12:35:20.848Z,100274.56
2023-01-10T12:40:37.322Z,100291.13
2023-01-10T12:45:56.831Z,100295.06
2023-01-10T12:51:04.745Z,100292.84
2023-01-10T12:56:11.514Z,100312.09
2023-01-10T13:01:17.244Z,100314.31
2023-01-10T13:06:31.442Z,100330.28
2023-01-10T13:11:40.422Z,100317.41
2023-01-10T13:16:52.676Z,100322.34
2023-01-10T13:22:34.985Z,100332.88
2023-01-10T13:27:36.516Z,100337.34
2023-01-10T13:32:38.905Z,100353.34
2023-01-10T13:37:43.113Z,100361.03
2023-01-10T13:43:03.189Z,100368.34
2023-01-10T13:48:05.595Z,100367.28
2023-01-10T13:53:08.450Z,100388.38
2023-01-10T13:58:09.811Z,100395.47
2023-01-10T14:03:37.731Z,100392.63
2023-01-10T14:08:40.691Z,100407.97
2023-01-10T14:13:52.945Z,100413.69
2023-01-10T14:18:54.531Z,100411.97
2023-01-10T14:23:57.958Z,100416.66
2023-01-10T14:29:02.831Z,100423.84
2023-01-10T14:34:06.107Z,100431.91
2023-01-10T14:39:08.131Z,100425.22
2023-01-10T14:44:24.088Z,100428.25
2023-01-10T14:49:35.219Z,100431.06
2023-01-10T14:54:36.688Z,100429.16
2023-01-10T14:59:38.724Z,100442.00
2023-01-10T15:04:52.163Z,100449.78
2023-01-10T15:09:57.248Z,100460.41
2023-01-10T15:15:11.749Z,100460.31
2023-01-10T15:20:17.701Z,100471.78
2023-01-10T15:25:19.061Z,100474.88
2023-01-10T15:30:23.054Z,100476.53
2023-01-10T15:35:36.149Z,100484.31
2023-01-10T15:40:40.063Z,100489.66
2023-01-10T15:45:42.820Z,100487.00
2023-01-10T15:51:01.701Z,100498.25
2023-01-10T15:56:15.077Z,100497.53
2023-01-10T16:01:16.927Z,100499.78
2023-01-10T16:06:29.751Z,100512.09
2023-01-10T16:12:08.375Z,100510.59
2023-01-10T16:17:11.395Z,100519.19
2023-01-10T16:22:17.863Z,100526.47
2023-01-10T16:27:19.358Z,100516.75
2023-01-10T16:32:20.819Z,100523.91
2023-01-10T16:37:22.278Z,100529.06
2023-01-10T16:42:42.043Z,100535.19
2023-01-10T16:47:43.454Z,100535.72
2023-01-10T16:52:44.862Z,100541.22
2023-01-10T16:57:47.911Z,100533.84
2023-01-10T17:02:49.441Z,100552.63
2023-01-10T17:07:50.888Z,100553.81
2023-01-10T17:12:52.487Z,100563.88
2023-01-10T17:17:53.973Z,100573.09
2023-01-10T17:22:55.385Z,100584.69
2023-01-10T17:27:56.888Z,100587.84
2023-01-10T17:32:58.689Z,100595.78
2023-01-10T17:38:00.107Z,100595.94
2023-01-10T17:43:01.552Z,100599.09
2023-01-10T17:48:02.983Z,100590.25
2023-01-10T17:53:05.127Z,100579.19
2023-01-10T17:58:06.606Z,100588.53
2023-01-10T18:03:08.717Z,100600.66
2023-01-10T18:08:10.161Z,100612.09
2023-01-10T18:13:12.678Z,100606.19
2023-01-10T18:18:14.827Z,100617.97
2023-01-10T18:23:23.503Z,100628.19
2023-01-10T18:28:39.536Z,100615.34
2023-01-10T18:33:42.309Z,100621.06
2023-01-10T18:38:44.487Z,100626.88
2023-01-10T18:43:46.336Z,100620.56
2023-01-10T18:48:51.292Z,100627.16
2023-01-10T18:53:53.150Z,100632.25
2023-01-10T18:58:55.682Z,100630.53
2023-01-10T19:03:57.298Z,100641.16
2023-01-10T19:08:58.726Z,100648.63
2023-01-10T19:14:00.211Z,100632.25
2023-01-10T19:19:09.312Z,100645.31
2023-01-10T19:24:29.627Z,100639.16
2023-01-10T19:29:31.522Z,100650.41
2023-01-10T19:34:33.057Z,100658.28
2023-01-10T19:39:35.217Z,100647.22
2023-01-10T19:44:36.712Z,100648.78
2023-01-10T19:49:38.153Z,100639.44
2023-01-10T19:54:39.680Z,100636.31
2023-01-10T19:59:41.771Z,100642.53
2023-01-10T20:04:43.237Z,100648.25
2023-01-10T20:09:44.638Z,100639.78
2023-01-10T20:14:46.129Z,100657.44
2023-01-10T20:19:48.638Z,100658.13
2023-01-10T20:24:50.215Z,100662.63
2023-01-10T20:29:51.646Z,100655.72
2023-01-10T20:34:53.098Z,100652.06
2023-01-10T20:39:55.191Z,100652.06
2023-01-10T20:44:56.640Z,100650.19
2023-01-10T20:49:58.063Z,100647.84
2023-01-10T20:54:59.488Z,100651.91
2023-01-10T21:00:00.951Z,100645.31
2023-01-10T21:05:02.454Z,100635.78
2023-01-10T21:10:04.132Z,100636.47
2023-01-10T21:15:05.921Z,100636.66
2023-01-10T21:20:08.667Z,100632.69
2023-01-10T21:25:10.129Z,100639.00
2023-01-10T21:30:12.155Z,100636.56
2023-01-10T21:35:13.824Z,100638.06
2023-01-10T21:40:15.565Z,100636.13
2023-01-10T21:45:18.252Z,100645.78
2023-01-10T21:50:22.344Z,100644.81
2023-01-10T21:55:24.077Z,100646.53
2023-01-10T22:00:25.701Z,100630.78
2023-01-10T22:05:27.313Z,100636.75
2023-01-10T22:10:30.167Z,100637.72
2023-01-10T22:15:31.970Z,100644.81
2023-01-10T22:20:33.434Z,100646.53
2023-01-10T22:25:34.911Z,100637.44
2023-01-10T22:30:36.356Z,100627.50
2023-01-10T22:35:37.776Z,100625.75
2023-01-10T22:40:39.214Z,100629.03
2023-01-10T22:45:42.050Z,100624.72
2023-01-10T22:50:49.000Z,100625.84
2023-01-10T22:55:50.487Z,100635.72
2023-01-10T23:06:11.868Z,100643.88
2023-01-10T23:11:16.365Z,100640.50
2023-01-10T23:16:22.053Z,100628.13
2023-01-10T23:21:25.143Z,100625.22
2023-01-10T23:26:26.651Z,100628.72
2023-01-10T23:31:29.609Z,100623.88
2023-01-10T23:36:31.376Z,100631.00
2023-01-10T23:41:32.808Z,100616.31
2023-01-10T23:46:34.237Z,100607.47
2023-01-10T23:51:37.362Z,100612.28
2023-01-10T23:56:38.774Z,100607.28
